Weather at Frankfurt-Egelsbach Airport

Public forecast

Using degrees Celsius for public forecast. Weather courtesy of forecast.io.

Closest aviation weather report (METAR) to Frankfurt-Egelsbach Airport

Closest report is Frankfurt Airport, 5.3 nm (9.8 km) NW.

2024/07/21 12:50 (retrieved 34 minutes ago)

EDDF 211250Z AUTO 24006KT 160V330 CAVOK 29/16 Q1008 NOSIG

Closest aviation forecast (TAF) to Frankfurt-Egelsbach Airport

Closest forecast is Frankfurt Airport, 5.3 nm (9.8 km) NW.

2024/07/21 12:27 (retrieved 57 minutes ago)

TAF TAF EDDF 211100Z 2112/2218 22006KT CAVOK TEMPO 2112/2119 25020G30KT TSRA BKN030CB PROB30 TEMPO 2119/2124 SHRA BKN040CB BECMG 2122/2201 BKN045 BECMG 2200/2203 29007KT BECMG 2206/2209 SCT040